Time;durP1;ratioP1;P1;durP2;ratioP2;P2;SDS_P1;SDS_P2;PMS_P1;PMS_P2;Temp;Humidity;BMP_temperature;BMP_pressure;BME280_temperature;BME280_humidity;BME280_pressure;Samples;Min_cycle;Max_cycle;Signal;HPM_P1;HPM_P2
2023/10/08 00:02:52;;;;;;;13.38;5.70;;;;;;;9.13;100.00;94879.31;5029762;28;20051;-65
2023/10/08 00:05:21;;;;;;;11.37;5.60;;;;;;;9.14;100.00;94880.91;5027525;28;20037;-64
2023/10/08 00:07:48;;;;;;;11.13;5.20;;;;;;;9.13;100.00;94882.06;5029327;28;20147;-65
2023/10/08 00:10:18;;;;;;;10.05;5.20;;;;;;;9.14;100.00;94888.34;5015814;28;20417;-64
2023/10/08 00:12:47;;;;;;;11.82;5.40;;;;;;;9.10;100.00;94882.84;5029310;28;20057;-65
2023/10/08 00:15:14;;;;;;;11.77;5.45;;;;;;;8.99;100.00;94890.19;5028939;28;20485;-65
2023/10/08 00:17:41;;;;;;;11.60;5.73;;;;;;;9.00;100.00;94891.78;5027287;28;20056;-65
2023/10/08 00:20:08;;;;;;;12.55;5.85;;;;;;;8.98;100.00;94889.41;5028781;28;20347;-64
2023/10/08 00:22:36;;;;;;;12.80;5.45;;;;;;;9.00;100.00;94892.56;5028807;28;20053;-64
2023/10/08 00:25:11;;;;;;;11.65;5.38;;;;;;;9.02;100.00;94888.66;5028810;28;20493;-64
2023/10/08 00:27:38;;;;;;;12.25;5.80;;;;;;;9.07;100.00;94891.81;5029035;28;20425;-64
2023/10/08 00:30:17;;;;;;;11.90;5.37;;;;;;;9.04;100.00;94887.09;5027858;28;20045;-64
2023/10/08 00:32:44;;;;;;;10.43;5.22;;;;;;;8.96;100.00;94888.22;5029029;28;20041;-64
2023/10/08 00:35:15;;;;;;;11.80;5.32;;;;;;;8.95;100.00;94879.25;5028440;28;20171;-64
2023/10/08 00:37:42;;;;;;;12.27;5.25;;;;;;;8.71;100.00;94886.13;5028864;28;20041;-64
2023/10/08 00:40:14;;;;;;;10.95;5.28;;;;;;;8.66;100.00;94886.44;5026973;28;20060;-64
2023/10/08 00:42:46;;;;;;;12.63;6.40;;;;;;;8.74;100.00;94890.03;5028869;28;20053;-64
2023/10/08 00:45:16;;;;;;;15.00;6.70;;;;;;;8.72;100.00;94884.94;5028554;28;20132;-64
2023/10/08 00:47:43;;;;;;;13.02;6.30;;;;;;;8.76;100.00;94890.44;5028373;28;20525;-64
2023/10/08 00:50:20;;;;;;;21.55;10.68;;;;;;;8.76;100.00;94891.22;5028248;28;20402;-64
2023/10/08 00:53:00;;;;;;;13.32;6.10;;;;;;;8.63;100.00;94887.19;5028936;28;20465;-64
2023/10/08 00:55:33;;;;;;;13.10;5.83;;;;;;;8.56;100.00;94882.47;5027718;28;20371;-64
2023/10/08 00:58:09;;;;;;;12.23;5.93;;;;;;;8.51;100.00;94877.34;5026859;28;20049;-63
2023/10/08 01:00:40;;;;;;;11.90;6.00;;;;;;;8.51;100.00;94880.09;5028807;28;20037;-64
2023/10/08 01:03:14;;;;;;;11.32;5.50;;;;;;;8.52;100.00;94878.91;5027609;28;20046;-64
2023/10/08 01:05:46;;;;;;;11.95;5.68;;;;;;;8.53;100.00;94866.00;5028408;28;20604;-64
2023/10/08 01:08:22;;;;;;;11.47;6.20;;;;;;;8.56;100.00;94865.28;5027977;28;20049;-64
2023/10/08 01:10:58;;;;;;;15.65;7.72;;;;;;;8.50;100.00;94875.78;5028654;28;20042;-64
2023/10/08 01:13:26;;;;;;;14.60;7.57;;;;;;;8.54;100.00;94873.06;5027630;28;20505;-64
2023/10/08 01:15:55;;;;;;;18.00;7.88;;;;;;;8.55;100.00;94863.69;5027831;28;20358;-65
2023/10/08 01:18:31;;;;;;;12.93;6.22;;;;;;;8.52;100.00;94870.69;5026570;28;20133;-64
2023/10/08 01:21:08;;;;;;;11.63;5.57;;;;;;;8.51;100.00;94866.41;5027750;28;20110;-63
2023/10/08 01:23:35;;;;;;;12.88;5.10;;;;;;;8.50;100.00;94861.31;5028093;28;20041;-64
2023/10/08 01:26:12;;;;;;;9.50;5.05;;;;;;;8.18;100.00;94865.31;5028139;28;20445;-63
2023/10/08 01:28:40;;;;;;;10.00;4.90;;;;;;;8.04;100.00;94859.69;5028089;28;20038;-65
2023/10/08 01:31:07;;;;;;;11.27;5.00;;;;;;;7.80;100.00;94863.75;5027556;28;20055;-63
2023/10/08 01:33:46;;;;;;;10.33;4.80;;;;;;;7.74;100.00;94862.53;5027808;28;20049;-64
2023/10/08 01:36:13;;;;;;;9.57;4.40;;;;;;;7.87;100.00;94861.13;5027723;28;20397;-64
2023/10/08 01:38:41;;;;;;;12.38;4.88;;;;;;;7.88;100.00;94868.13;5028368;28;20053;-64
2023/10/08 01:44:11;;;;;;;12.40;5.40;;;;;;;7.98;100.00;94861.22;4966025;28;20124;-64
2023/10/08 01:46:40;;;;;;;14.20;5.37;;;;;;;7.98;100.00;94863.94;5015551;28;20037;-65
2023/10/08 01:49:14;;;;;;;13.25;5.55;;;;;;;8.03;100.00;94858.16;5027353;28;20390;-64
2023/10/08 01:51:47;;;;;;;9.95;5.10;;;;;;;8.04;100.00;94856.19;5027819;28;20098;-64
2023/10/08 01:54:16;;;;;;;10.00;4.72;;;;;;;8.05;100.00;94860.47;5027520;28;20055;-64
2023/10/08 01:56:43;;;;;;;10.32;4.82;;;;;;;8.07;100.00;94864.44;5027962;28;20046;-64
2023/10/08 01:59:13;;;;;;;10.77;4.90;;;;;;;7.77;100.00;94859.06;5028484;28;20054;-64
2023/10/08 02:01:41;;;;;;;9.57;4.82;;;;;;;7.87;100.00;94857.56;5031536;28;20061;-64
2023/10/08 02:04:11;;;;;;;11.00;4.85;;;;;;;7.94;100.00;94858.44;5031328;28;20045;-64
2023/10/08 02:06:42;;;;;;;10.32;5.10;;;;;;;7.98;100.00;94862.00;5031852;28;20055;-64
2023/10/08 02:09:09;;;;;;;11.40;4.70;;;;;;;7.94;100.00;94860.38;5029964;28;20497;-64
2023/10/08 02:11:53;;;;;;;10.03;4.90;;;;;;;7.97;100.00;94859.66;5031749;28;20490;-64
2023/10/08 02:14:22;;;;;;;9.90;4.53;;;;;;;7.97;100.00;94857.69;5031175;28;20045;-64
2023/10/08 02:16:54;;;;;;;11.20;5.30;;;;;;;7.99;100.00;94865.53;5030264;28;20760;-64
2023/10/08 02:19:28;;;;;;;9.95;5.07;;;;;;;8.02;100.00;94864.75;5030852;28;20048;-64
2023/10/08 02:21:57;;;;;;;10.25;5.07;;;;;;;8.01;100.00;94857.75;5030527;28;20405;-64
2023/10/08 02:24:25;;;;;;;11.47;4.90;;;;;;;8.00;100.00;94858.88;5029964;28;20192;-64
2023/10/08 02:26:53;;;;;;;10.50;5.05;;;;;;;8.02;100.00;94858.53;5029612;28;20033;-64
2023/10/08 02:29:20;;;;;;;11.07;5.20;;;;;;;8.02;100.00;94853.06;5030391;28;20049;-64
2023/10/08 02:31:47;;;;;;;9.93;5.30;;;;;;;8.00;100.00;94851.47;5030912;28;20046;-64
2023/10/08 02:34:14;;;;;;;10.57;5.00;;;;;;;8.01;100.00;94855.00;5030115;28;20052;-63
2023/10/08 02:36:41;;;;;;;13.47;5.43;;;;;;;7.90;100.00;94854.88;5030970;28;20417;-64
2023/10/08 02:39:25;;;;;;;12.90;5.07;;;;;;;7.91;100.00;94845.53;5029970;28;20046;-64
2023/10/08 02:41:59;;;;;;;11.68;4.93;;;;;;;7.89;100.00;94853.31;5017458;28;20053;-64
2023/10/08 02:44:27;;;;;;;11.73;4.88;;;;;;;7.83;100.00;94860.28;5028350;28;20378;-64
2023/10/08 02:46:54;;;;;;;11.57;5.50;;;;;;;7.91;100.00;94850.22;5030765;28;20417;-64
2023/10/08 02:49:24;;;;;;;10.97;5.30;;;;;;;7.87;100.00;94847.44;5029372;28;20485;-64
2023/10/08 02:51:55;;;;;;;12.43;5.18;;;;;;;7.88;100.00;94843.53;5030228;28;20049;-64
2023/10/08 02:54:31;;;;;;;12.25;5.20;;;;;;;7.87;100.00;94841.97;5029764;28;20056;-64
2023/10/08 02:57:03;;;;;;;8.48;4.70;;;;;;;7.88;100.00;94843.53;5029849;28;20046;-63
2023/10/08 02:59:40;;;;;;;11.48;5.38;;;;;;;7.84;100.00;94837.25;5028618;28;20037;-64
2023/10/08 03:02:18;;;;;;;20.37;10.50;;;;;;;7.79;100.00;94845.81;5029385;28;20045;-63
2023/10/08 03:04:46;;;;;;;11.98;5.63;;;;;;;7.73;100.00;94844.56;5030024;28;20052;-64
2023/10/08 03:07:32;;;;;;;11.32;5.10;;;;;;;7.72;100.00;94840.25;5029696;28;20049;-64
2023/10/08 03:10:06;;;;;;;10.00;5.13;;;;;;;7.75;100.00;94832.09;5029393;28;20053;-64
2023/10/08 03:12:33;;;;;;;10.43;5.38;;;;;;;7.76;100.00;94836.38;5030313;28;20071;-64
2023/10/08 03:15:12;;;;;;;11.30;5.10;;;;;;;7.73;100.00;94831.69;5027979;28;20051;-64
2023/10/08 03:17:48;;;;;;;11.43;5.10;;;;;;;7.73;100.00;94836.38;5028588;28;20043;-65
2023/10/08 03:23:05;;;;;;;12.05;5.20;;;;;;;7.62;100.00;94827.28;5029454;28;20052;-64
2023/10/08 03:25:41;;;;;;;10.30;5.35;;;;;;;7.55;100.00;94831.50;5029018;28;20510;-64
2023/10/08 03:28:09;;;;;;;12.37;5.40;;;;;;;7.57;100.00;94829.19;5029271;28;20045;-63
2023/10/08 03:30:47;;;;;;;10.50;4.97;;;;;;;7.58;100.00;94830.72;5030185;28;20045;-64
2023/10/08 03:33:22;;;;;;;10.27;4.88;;;;;;;7.60;100.00;94836.59;5029613;28;20041;-64
2023/10/08 03:35:52;;;;;;;9.13;5.07;;;;;;;7.63;100.00;94834.31;5030144;28;20041;-64
2023/10/08 03:38:28;;;;;;;10.60;5.45;;;;;;;7.50;100.00;94831.03;5028152;28;20041;-64
2023/10/08 03:41:06;;;;;;;11.20;5.00;;;;;;;7.48;100.00;94831.41;5029947;28;20053;-64
2023/10/08 03:43:47;;;;;;;10.00;4.97;;;;;;;7.53;100.00;94835.78;5029189;28;20660;-64
2023/10/08 03:46:17;;;;;;;11.82;4.97;;;;;;;7.53;100.00;94830.31;5029271;28;20087;-64
2023/10/08 03:48:45;;;;;;;9.85;5.13;;;;;;;7.53;100.00;94831.09;5030129;28;20037;-64
2023/10/08 03:51:14;;;;;;;8.80;4.75;;;;;;;7.56;100.00;94826.81;5029139;28;20057;-63
2023/10/08 03:53:59;;;;;;;12.13;5.13;;;;;;;7.54;100.00;94827.19;5029142;28;20037;-64
2023/10/08 03:56:29;;;;;;;10.43;4.68;;;;;;;7.49;100.00;94826.75;5028573;28;21421;-64
2023/10/08 03:59:03;;;;;;;11.38;4.93;;;;;;;7.50;100.00;94831.03;5029880;28;20058;-63
2023/10/08 04:01:32;;;;;;;10.18;4.90;;;;;;;7.49;100.00;94824.03;5028713;28;20409;-62
2023/10/08 04:04:00;;;;;;;10.80;5.10;;;;;;;7.50;100.00;94831.81;5028895;28;20061;-62
2023/10/08 04:06:38;;;;;;;10.97;4.90;;;;;;;7.52;100.00;94823.25;5029257;28;20041;-63
2023/10/08 04:11:36;;;;;;;11.07;5.00;;;;;;;7.36;100.00;94828.94;5014560;28;20041;-62
2023/10/08 04:14:03;;;;;;;10.68;4.80;;;;;;;7.27;100.00;94825.72;5026239;28;20045;-62
2023/10/08 04:16:32;;;;;;;11.63;5.25;;;;;;;7.19;100.00;94822.88;5027238;28;20057;-62
2023/10/08 04:19:03;;;;;;;9.87;4.50;;;;;;;7.20;100.00;94819.00;5028579;28;20146;-62
2023/10/08 04:21:33;;;;;;;11.32;5.05;;;;;;;7.25;100.00;94817.88;5028864;28;20052;-65
2023/10/08 04:24:03;;;;;;;12.07;5.20;;;;;;;7.25;100.00;94815.16;5026732;28;20053;-65
2023/10/08 04:26:31;;;;;;;13.55;5.05;;;;;;;7.27;100.00;94812.06;5029301;28;20046;-65
2023/10/08 04:29:06;;;;;;;10.35;5.10;;;;;;;7.30;100.00;94811.31;5028464;28;20046;-64
2023/10/08 04:31:43;;;;;;;9.83;5.03;;;;;;;7.27;100.00;94815.56;5029091;28;20048;-65
2023/10/08 04:34:16;;;;;;;11.07;4.57;;;;;;;7.32;100.00;94817.19;5028177;28;20041;-65
2023/10/08 04:36:46;;;;;;;11.00;5.50;;;;;;;7.27;100.00;94810.13;5028967;28;20055;-65
2023/10/08 04:39:21;;;;;;;12.23;5.43;;;;;;;7.16;100.00;94818.19;5028656;28;20053;-65
2023/10/08 04:41:53;;;;;;;14.60;5.10;;;;;;;7.05;100.00;94817.25;5028680;28;20504;-63
2023/10/08 04:44:21;;;;;;;10.20;4.77;;;;;;;6.92;100.00;94818.63;5028333;28;20041;-62
2023/10/08 04:46:51;;;;;;;10.60;4.63;;;;;;;6.93;100.00;94822.94;5027328;28;20049;-63
2023/10/08 04:49:28;;;;;;;11.45;4.45;;;;;;;6.98;100.00;94811.69;5028236;28;20058;-62
2023/10/08 04:51:57;;;;;;;11.57;4.90;;;;;;;7.06;100.00;94809.84;5028401;28;20624;-62
2023/10/08 04:54:29;;;;;;;11.90;5.05;;;;;;;7.12;100.00;94814.63;5027551;28;20464;-62
2023/10/08 04:57:01;;;;;;;12.13;4.70;;;;;;;7.15;100.00;94807.63;5028357;28;20545;-62
2023/10/08 04:59:33;;;;;;;11.32;5.00;;;;;;;7.16;100.00;94798.28;5027821;28;20409;-62
2023/10/08 05:07:21;;;;;;;14.73;6.43;;;;;;;7.17;100.00;94800.63;5027889;28;20110;-62
2023/10/08 05:17:57;;;;;;;11.95;5.65;;;;;;;7.15;100.00;94808.41;5028407;28;20413;-63
2023/10/08 05:23:20;;;;;;;10.97;5.33;;;;;;;7.14;100.00;94811.50;5027614;28;20045;-62
2023/10/08 05:34:17;;;;;;;20.20;8.95;;;;;;;7.08;100.00;94811.03;5028461;28;20405;-62
2023/10/08 05:39:41;;;;;;;10.10;5.20;;;;;;;7.09;100.00;94809.13;5031453;28;20107;-63
2023/10/08 05:42:31;;;;;;;15.50;6.13;;;;;;;7.07;100.00;94808.69;5031761;28;20052;-63
2023/10/08 05:55:25;;;;;;;20.20;7.15;;;;;;;7.29;100.00;94816.00;5029907;28;20118;-63
2023/10/08 05:58:13;;;;;;;14.85;6.43;;;;;;;7.34;100.00;94823.84;5032517;28;20118;-63
2023/10/08 06:03:37;;;;;;;11.07;4.70;;;;;;;7.08;100.00;94821.19;5013814;28;20171;-63
2023/10/08 06:11:41;;;;;;;13.80;5.55;;;;;;;7.58;100.00;94832.69;5029970;28;20038;-63
2023/10/08 06:14:16;;;;;;;21.20;11.02;;;;;;;7.77;100.00;94831.72;5031031;28;20445;-63
2023/10/08 06:16:44;;;;;;;16.63;7.13;;;;;;;7.84;100.00;94839.97;5030586;28;20057;-64
2023/10/08 06:19:12;;;;;;;16.52;6.50;;;;;;;7.98;100.00;94844.81;5030782;28;20054;-64
2023/10/08 06:21:42;;;;;;;15.95;5.85;;;;;;;8.13;100.00;94838.31;5031312;28;20045;-63
2023/10/08 06:24:09;;;;;;;9.48;4.63;;;;;;;8.03;100.00;94846.41;5030882;28;20045;-63
2023/10/08 06:26:48;;;;;;;11.70;5.00;;;;;;;8.07;100.00;94845.31;5031693;28;20039;-63
2023/10/08 06:29:18;;;;;;;11.63;4.60;;;;;;;8.25;100.00;94848.19;5022094;28;20524;-64
2023/10/08 06:31:51;;;;;;;11.57;5.32;;;;;;;8.37;100.00;94853.38;5031076;28;20377;-64
2023/10/08 06:34:21;;;;;;;15.80;6.97;;;;;;;8.68;100.00;94850.50;5030976;28;20048;-64
2023/10/08 06:36:53;;;;;;;15.45;6.35;;;;;;;8.95;100.00;94845.59;5031044;28;20409;-64
2023/10/08 06:39:33;;;;;;;10.10;5.22;;;;;;;9.14;100.00;94855.47;5030327;28;20060;-64
2023/10/08 06:42:00;;;;;;;13.23;4.60;;;;;;;9.18;100.00;94854.31;5030912;28;20417;-63
2023/10/08 06:44:27;;;;;;;11.75;4.55;;;;;;;9.24;100.00;94864.94;5031184;28;20047;-64
2023/10/08 06:46:58;;;;;;;14.60;5.13;;;;;;;9.35;100.00;94861.03;5031073;28;20045;-64
2023/10/08 06:49:25;;;;;;;11.60;5.30;;;;;;;9.59;100.00;94869.75;5030209;28;20192;-64
2023/10/08 06:51:53;;;;;;;13.02;5.50;;;;;;;9.71;100.00;94861.19;5031189;28;20057;-64
2023/10/08 06:54:22;;;;;;;12.77;4.77;;;;;;;9.95;100.00;94869.88;5030889;28;20048;-65
2023/10/08 06:56:51;;;;;;;12.32;5.18;;;;;;;10.00;100.00;94873.03;5031141;28;20482;-64
2023/10/08 06:59:22;;;;;;;15.98;6.78;;;;;;;10.28;100.00;94868.78;5017709;28;20052;-64
2023/10/08 07:01:51;;;;;;;15.18;6.20;;;;;;;10.71;100.00;94873.53;5028203;28;20502;-64
2023/10/08 07:04:20;;;;;;;14.55;5.03;;;;;;;11.11;100.00;94869.56;5030083;28;20052;-64
2023/10/08 07:06:47;;;;;;;17.40;7.60;;;;;;;11.44;100.00;94872.22;5030978;28;20049;-64
2023/10/08 07:12:14;;;;;;;34.22;17.17;;;;;;;13.89;100.00;94875.47;5017124;28;20041;-64
2023/10/08 07:14:41;;;;;;;15.95;8.20;;;;;;;14.69;100.00;94873.19;5031041;28;20037;-64
2023/10/08 07:17:11;;;;;;;13.65;5.20;;;;;;;15.73;99.26;94873.34;5030114;28;20063;-64
2023/10/08 07:19:40;;;;;;;15.27;6.27;;;;;;;16.91;91.84;94873.56;5030796;28;20072;-64
2023/10/08 07:22:28;;;;;;;12.43;5.80;;;;;;;18.80;78.97;94879.09;5028328;28;20139;-65
2023/10/08 07:24:55;;;;;;;11.93;5.68;;;;;;;19.79;69.46;94876.22;5030551;28;20045;-66
2023/10/08 07:27:24;;;;;;;12.40;5.53;;;;;;;18.72;75.19;94882.06;5029408;28;20056;-65
2023/10/08 07:29:55;;;;;;;12.40;5.35;;;;;;;19.70;71.45;94883.22;5030109;28;20041;-65
2023/10/08 07:32:25;;;;;;;14.10;5.40;;;;;;;20.96;61.79;94870.19;5029924;28;20348;-65
2023/10/08 07:34:57;;;;;;;12.20;5.35;;;;;;;21.22;60.65;94873.53;5030038;28;20048;-66
2023/10/08 07:37:26;;;;;;;10.55;5.00;;;;;;;21.90;58.26;94881.84;5029400;28;20520;-66
2023/10/08 07:39:55;;;;;;;11.07;4.53;;;;;;;22.44;55.65;94875.91;5028714;28;20495;-66
2023/10/08 07:42:22;;;;;;;11.40;5.63;;;;;;;22.93;54.50;94883.19;5030032;28;20503;-66
2023/10/08 07:44:50;;;;;;;15.40;7.47;;;;;;;23.43;51.18;94875.16;5029043;28;20477;-66
2023/10/08 07:47:21;;;;;;;17.38;9.48;;;;;;;24.42;49.04;94880.91;5029856;28;20156;-66
2023/10/08 07:49:48;;;;;;;12.73;5.70;;;;;;;25.38;46.59;94880.44;5029984;28;20067;-66
2023/10/08 07:52:15;;;;;;;13.93;4.68;;;;;;;25.76;44.57;94884.25;5028798;28;20045;-66
2023/10/08 07:54:43;;;;;;;11.52;4.95;;;;;;;26.27;42.34;94887.66;5029866;28;20038;-66
2023/10/08 07:57:18;;;;;;;13.37;4.60;;;;;;;26.83;41.85;94884.63;5028263;28;20048;-66
2023/10/08 07:59:46;;;;;;;10.68;4.10;;;;;;;27.38;40.29;94883.50;5030052;28;20048;-66
2023/10/08 08:02:17;;;;;;;11.85;4.22;;;;;;;25.24;42.63;94881.25;5028213;28;20123;-66
2023/10/08 08:04:45;;;;;;;11.95;4.13;;;;;;;24.44;45.19;94878.38;5029629;28;20550;-66
2023/10/08 08:07:16;;;;;;;12.65;4.10;;;;;;;23.27;48.13;94883.97;5029398;28;20045;-66
2023/10/08 08:09:50;;;;;;;14.27;4.37;;;;;;;24.50;45.93;94887.72;5028369;28;20043;-66
2023/10/08 08:12:19;;;;;;;13.38;3.90;;;;;;;26.21;43.76;94878.38;5028880;28;20053;-66
2023/10/08 08:14:46;;;;;;;13.88;4.20;;;;;;;27.13;40.60;94876.66;5029894;28;20414;-66
2023/10/08 08:17:13;;;;;;;12.40;4.10;;;;;;;26.42;42.97;94879.88;5027605;28;20049;-66
2023/10/08 08:19:47;;;;;;;9.95;4.13;;;;;;;27.19;41.65;94885.16;5029700;28;20395;-66
2023/10/08 08:22:30;;;;;;;14.47;4.40;;;;;;;27.70;39.22;94880.59;5028996;28;20377;-66
2023/10/08 08:25:16;;;;;;;12.00;4.10;;;;;;;28.85;37.79;94875.53;5029529;28;20122;-66
2023/10/08 08:27:44;;;;;;;10.93;4.38;;;;;;;29.94;35.21;94869.97;5028603;28;20364;-66
2023/10/08 08:30:15;;;;;;;12.45;4.30;;;;;;;30.36;34.27;94865.13;5027555;28;20413;-67
2023/10/08 08:32:44;;;;;;;11.00;3.92;;;;;;;29.80;34.37;94873.88;5029717;28;20448;-67
2023/10/08 08:35:12;;;;;;;11.33;4.30;;;;;;;30.13;34.10;94867.31;5027376;28;20202;-67
2023/10/08 08:37:39;;;;;;;13.18;4.28;;;;;;;30.76;33.27;94865.63;5029203;28;20046;-65
2023/10/08 08:40:17;;;;;;;12.77;4.22;;;;;;;31.86;31.47;94868.50;5027245;28;20075;-64
2023/10/08 08:42:48;;;;;;;13.18;4.30;;;;;;;32.71;30.08;94864.56;5028997;28;20049;-64
2023/10/08 08:45:24;;;;;;;14.60;4.45;;;;;;;32.11;30.61;94880.59;5016179;28;20049;-64
2023/10/08 08:47:53;;;;;;;14.37;4.10;;;;;;;32.95;29.06;94861.59;5028799;28;20579;-65
2023/10/08 08:50:21;;;;;;;12.55;4.07;;;;;;;33.15;28.74;94868.78;5028663;28;20037;-65
2023/10/08 08:52:48;;;;;;;12.43;4.00;;;;;;;33.09;27.76;94870.97;5028634;28;20474;-65
2023/10/08 08:55:16;;;;;;;18.48;4.22;;;;;;;33.65;26.90;94865.63;5028501;28;20045;-65
2023/10/08 08:57:49;;;;;;;15.85;4.47;;;;;;;33.95;27.01;94865.28;5028949;28;20448;-65
2023/10/08 09:00:18;;;;;;;16.43;4.03;;;;;;;35.14;25.30;94858.47;5028727;28;20047;-65
2023/10/08 09:02:47;;;;;;;14.45;4.05;;;;;;;34.18;26.43;94863.50;5028848;28;20042;-65
2023/10/08 09:05:25;;;;;;;20.20;3.97;;;;;;;35.41;24.58;94861.94;5028369;28;20470;-65
2023/10/08 09:08:06;;;;;;;15.48;3.83;;;;;;;34.80;25.51;94867.09;5016347;28;20055;-65
2023/10/08 09:10:37;;;;;;;15.55;3.90;;;;;;;34.62;25.08;94852.44;5026420;28;20087;-65
2023/10/08 09:13:07;;;;;;;17.67;4.20;;;;;;;34.70;25.42;94854.63;5028049;28;20379;-65
2023/10/08 09:15:35;;;;;;;18.33;4.40;;;;;;;36.02;24.66;94852.28;5028487;28;20046;-65
2023/10/08 09:18:05;;;;;;;18.02;4.10;;;;;;;35.84;24.75;94856.16;5028484;28;20041;-64
2023/10/08 09:20:42;;;;;;;16.30;4.05;;;;;;;35.90;24.34;94859.63;5028685;28;20439;-65
2023/10/08 09:23:21;;;;;;;18.83;3.90;;;;;;;35.60;24.63;94855.25;5027981;28;20042;-65
2023/10/08 09:26:01;;;;;;;16.43;3.67;;;;;;;36.42;24.33;94851.91;5017265;28;20041;-65
2023/10/08 09:28:28;;;;;;;17.10;3.70;;;;;;;36.14;23.95;94858.41;5027590;28;20692;-65
2023/10/08 09:30:58;;;;;;;13.48;3.50;;;;;;;35.35;24.41;94852.75;5028445;28;20059;-65
2023/10/08 09:33:25;;;;;;;17.38;3.90;;;;;;;34.54;25.46;94859.38;5027193;28;20037;-64
2023/10/08 09:35:57;;;;;;;16.20;3.80;;;;;;;35.56;24.77;94844.19;5028642;28;20041;-64
2023/10/08 09:38:25;;;;;;;14.63;3.60;;;;;;;34.35;26.04;94857.47;5026154;28;20109;-65
2023/10/08 09:40:53;;;;;;;20.10;3.45;;;;;;;35.49;24.29;94853.44;5028531;28;20041;-64
2023/10/08 09:43:22;;;;;;;17.77;3.58;;;;;;;36.90;23.64;94855.09;5028115;28;20072;-65
2023/10/08 09:46:13;;;;;;;15.40;3.67;;;;;;;37.73;21.76;94863.56;5028399;28;20037;-66
2023/10/08 09:48:44;;;;;;;14.65;3.65;;;;;;;36.98;22.73;94860.84;5027447;28;20445;-67
2023/10/08 09:51:12;;;;;;;17.63;3.40;;;;;;;37.70;21.70;94854.03;5027931;28;20052;-67
2023/10/08 09:54:10;;;;;;;19.58;3.47;;;;;;;35.05;21.70;94855.34;5028018;28;20130;-64
2023/10/08 09:56:39;;;;;;;15.27;3.22;;;;;;;38.70;19.05;94862.34;5017169;28;20484;-65
2023/10/08 09:59:10;;;;;;;15.98;3.35;;;;;;;35.08;21.13;94854.25;5027597;28;20046;-64
2023/10/08 10:01:40;;;;;;;17.98;3.60;;;;;;;31.51;25.38;94861.69;5028371;28;20060;-65
2023/10/08 10:04:10;;;;;;;15.93;3.40;;;;;;;34.41;22.89;94854.50;5027711;28;20045;-65
2023/10/08 10:06:43;;;;;;;16.45;3.30;;;;;;;33.95;23.68;94865.28;5027996;28;20060;-65
2023/10/08 10:09:21;;;;;;;17.80;3.45;;;;;;;36.35;21.66;94861.22;5027494;28;20043;-64
2023/10/08 10:11:50;;;;;;;14.35;3.20;;;;;;;30.35;28.62;94869.28;5028267;28;20364;-64
2023/10/08 10:14:19;;;;;;;15.93;3.53;;;;;;;27.92;32.19;94868.66;5027380;28;20044;-64
2023/10/08 10:17:09;;;;;;;18.77;3.63;;;;;;;26.99;34.33;94877.59;5028163;28;20416;-64
2023/10/08 10:19:36;;;;;;;19.25;3.28;;;;;;;27.39;34.20;94881.47;5027268;28;20501;-64
2023/10/08 10:22:03;;;;;;;20.77;3.55;;;;;;;27.43;34.47;94885.59;5031062;28;20050;-64
2023/10/08 10:24:35;;;;;;;20.05;3.28;;;;;;;25.84;36.61;94887.41;5030399;28;20482;-64
2023/10/08 10:27:16;;;;;;;14.98;3.47;;;;;;;24.15;40.66;94896.75;5031166;28;20042;-66
2023/10/08 10:29:44;;;;;;;17.40;3.23;;;;;;;25.60;38.81;94888.38;5031287;28;20488;-66
2023/10/08 10:32:15;;;;;;;16.75;3.25;;;;;;;25.76;38.83;94889.88;5030783;28;20057;-66
2023/10/08 10:34:43;;;;;;;18.67;3.80;;;;;;;26.63;35.66;94879.84;5031234;28;20046;-66
2023/10/08 10:37:20;;;;;;;22.52;3.40;;;;;;;25.64;36.72;94891.75;5031025;28;20332;-66
2023/10/08 10:39:59;;;;;;;21.77;3.40;;;;;;;24.60;38.27;94891.19;5031136;28;20044;-66
2023/10/08 10:42:28;;;;;;;15.73;3.20;;;;;;;25.06;37.96;94890.66;5030593;28;20448;-66
2023/10/08 10:44:56;;;;;;;16.90;3.30;;;;;;;24.81;38.62;94892.84;5031351;28;20049;-66
2023/10/08 10:47:26;;;;;;;16.00;3.38;;;;;;;24.40;38.52;94891.84;5031142;28;20044;-66
2023/10/08 10:57:54;;;;;;;16.45;3.35;;;;;;;24.90;37.52;94889.13;5030822;28;20041;-66
2023/10/08 11:03:09;;;;;;;10.00;3.13;;;;;;;26.88;32.66;94881.84;5030824;28;20055;-66
2023/10/08 11:05:39;;;;;;;14.50;3.00;;;;;;;28.58;30.52;94883.47;5029710;28;20049;-66
2023/10/08 11:08:08;;;;;;;13.30;3.07;;;;;;;27.73;30.79;94881.63;5030696;28;20116;-66
2023/10/08 11:10:39;;;;;;;17.15;2.63;;;;;;;27.78;31.06;94873.19;5030631;28;20049;-66
2023/10/08 11:13:14;;;;;;;16.83;2.88;;;;;;;29.65;28.64;94874.94;5030257;28;20095;-66
2023/10/08 11:15:46;;;;;;;16.75;2.90;;;;;;;29.41;28.65;94880.38;5030730;28;20048;-66
2023/10/08 11:18:16;;;;;;;12.27;2.60;;;;;;;30.60;27.80;94870.13;5030570;28;20049;-67
2023/10/08 11:20:44;;;;;;;14.97;3.10;;;;;;;30.19;27.61;94873.72;5017743;28;20050;-66
2023/10/08 11:23:35;;;;;;;16.60;2.97;;;;;;;31.11;26.75;94877.50;5029581;28;20057;-66
2023/10/08 11:26:04;;;;;;;13.40;2.78;;;;;;;31.11;26.62;94864.09;5030179;28;20241;-66
2023/10/08 11:28:47;;;;;;;11.63;3.05;;;;;;;27.42;30.08;94869.94;5030204;28;20049;-66
2023/10/08 11:31:19;;;;;;;11.48;2.75;;;;;;;28.86;28.53;94866.53;5029386;28;20042;-66
2023/10/08 11:33:56;;;;;;;12.77;3.23;;;;;;;28.01;29.71;94864.84;5030338;28;20038;-66
2023/10/08 11:36:30;;;;;;;10.27;2.70;;;;;;;29.30;28.81;94867.06;5029922;28;20044;-66
2023/10/08 11:39:09;;;;;;;14.63;2.50;;;;;;;29.96;27.98;94858.91;5029164;28;20045;-66
2023/10/08 11:41:49;;;;;;;14.15;2.92;;;;;;;28.88;28.81;94866.03;5029434;28;21477;-66
2023/10/08 11:44:19;;;;;;;15.15;3.08;;;;;;;28.23;29.11;94856.44;5027922;28;20061;-66
2023/10/08 11:46:51;;;;;;;15.07;3.00;;;;;;;27.18;30.62;94855.41;5030024;28;20085;-66
2023/10/08 11:49:19;;;;;;;14.23;2.55;;;;;;;26.76;30.04;94854.09;5029550;28;21881;-66
2023/10/08 11:51:46;;;;;;;13.38;2.80;;;;;;;25.82;32.40;94856.19;5030040;28;20106;-66
2023/10/08 11:54:14;;;;;;;11.95;2.60;;;;;;;26.79;30.56;94845.41;5029532;28;20063;-66
2023/10/08 11:56:41;;;;;;;12.20;2.72;;;;;;;27.20;29.73;94847.22;5030182;28;20049;-66
2023/10/08 11:59:08;;;;;;;12.27;2.37;;;;;;;27.41;29.72;94837.41;5029274;28;20045;-65
2023/10/08 12:01:37;;;;;;;10.32;2.20;;;;;;;27.54;29.16;94831.28;5028635;28;20443;-66
2023/10/08 12:04:07;;;;;;;9.45;2.40;;;;;;;26.62;30.77;94834.03;5028901;28;20044;-65
2023/10/08 12:06:35;;;;;;;11.38;2.58;;;;;;;27.33;29.29;94832.75;5030209;28;20044;-66
2023/10/08 12:09:11;;;;;;;11.57;2.50;;;;;;;27.38;29.15;94829.16;5028909;28;20049;-65
2023/10/08 12:11:39;;;;;;;11.17;2.60;;;;;;;27.12;29.00;94834.88;5029764;28;20532;-66
2023/10/08 12:14:06;;;;;;;11.90;2.50;;;;;;;27.30;28.45;94829.63;5028998;28;20049;-66
2023/10/08 12:16:36;;;;;;;10.55;2.50;;;;;;;27.04;28.04;94820.50;5029667;28;20059;-66
2023/10/08 12:19:15;;;;;;;10.02;2.45;;;;;;;26.87;29.29;94826.78;5028637;28;20095;-65
2023/10/08 12:21:46;;;;;;;13.07;2.63;;;;;;;27.50;29.07;94823.06;5028542;28;20516;-65
2023/10/08 12:24:14;;;;;;;12.70;2.63;;;;;;;26.89;28.77;94827.06;5028820;28;20050;-65
2023/10/08 12:26:45;;;;;;;11.90;2.47;;;;;;;27.03;27.08;94821.78;5029163;28;20041;-66
2023/10/08 12:29:19;;;;;;;12.93;2.50;;;;;;;26.68;28.05;94817.16;5028609;28;20107;-66
2023/10/08 12:31:47;;;;;;;12.88;2.50;;;;;;;26.75;27.60;94816.72;5027706;28;20448;-65
2023/10/08 12:34:15;;;;;;;16.02;2.92;;;;;;;25.98;27.22;94818.28;5028700;28;20049;-65
2023/10/08 12:36:42;;;;;;;13.80;2.67;;;;;;;25.81;27.67;94821.66;5027874;28;20104;-65
2023/10/08 12:39:11;;;;;;;17.30;2.50;;;;;;;26.68;27.65;94811.53;5028421;28;20486;-65
2023/10/08 12:41:43;;;;;;;12.68;2.65;;;;;;;27.07;26.85;94814.63;5028766;28;20045;-65
2023/10/08 12:44:11;;;;;;;11.60;2.35;;;;;;;27.19;26.67;94809.06;5028507;28;20053;-65
2023/10/08 12:46:39;;;;;;;13.43;2.47;;;;;;;27.49;26.34;94804.63;5028931;28;20421;-65
2023/10/08 12:49:07;;;;;;;17.83;2.60;;;;;;;27.67;26.58;94805.47;5028669;28;20406;-66
2023/10/08 12:51:34;;;;;;;14.35;2.70;;;;;;;26.95;27.30;94812.25;5016259;28;20052;-67
2023/10/08 12:54:10;;;;;;;14.88;2.67;;;;;;;26.36;28.02;94811.53;5028303;28;20056;-63